Time;durP1;ratioP1;P1;durP2;ratioP2;P2;SDS_P1;SDS_P2;PMS_P1;PMS_P2;Temp;Humidity;BMP_temperature;BMP_pressure;BME280_temperature;BME280_humidity;BME280_pressure;Samples;Min_cycle;Max_cycle;Signal;HPM_P1;HPM_P2
2022/06/07 00:01:05;;;;;;;12.70;10.63;;;;;;;;;;5042813;28;20277;-73
2022/06/07 00:03:30;;;;;;;14.13;11.30;;;;;;;;;;5048816;28;20181;-75
2022/06/07 00:05:55;;;;;;;11.05;9.43;;;;;;;;;;5038434;28;20714;-73
2022/06/07 00:08:21;;;;;;;12.60;10.25;;;;;;;;;;5040450;28;20201;-73
2022/06/07 00:10:47;;;;;;;12.20;9.93;;;;;;;;;;5044622;28;20537;-73
2022/06/07 00:13:12;;;;;;;12.48;10.05;;;;;;;;;;5044703;28;20174;-75
2022/06/07 00:15:40;;;;;;;11.20;9.95;;;;;;;;;;5039738;28;20266;-73
2022/06/07 00:18:06;;;;;;;13.27;9.23;;;;;;;;;;5043496;28;20177;-73
2022/06/07 00:20:32;;;;;;;11.18;9.50;;;;;;;;;;5034992;28;20200;-74
2022/06/07 00:22:58;;;;;;;12.35;9.75;;;;;;;;;;5038586;28;20518;-74
2022/06/07 00:25:23;;;;;;;11.60;9.25;;;;;;;;;;5035301;28;20209;-74
2022/06/07 00:27:48;;;;;;;9.63;8.63;;;;;;;;;;5038078;28;20184;-74
2022/06/07 00:30:14;;;;;;;13.02;9.38;;;;;;;;;;5034789;28;20680;-74
2022/06/07 00:32:39;;;;;;;13.18;9.13;;;;;;;;;;5038810;28;20180;-74
2022/06/07 00:35:05;;;;;;;10.48;9.35;;;;;;;;;;5042117;28;20198;-74
2022/06/07 00:37:30;;;;;;;11.40;8.55;;;;;;;;;;5046451;28;20182;-74
2022/06/07 00:39:56;;;;;;;19.40;9.93;;;;;;;;;;5039938;28;20210;-75
2022/06/07 00:42:21;;;;;;;12.20;9.07;;;;;;;;;;5041450;28;20562;-73
2022/06/07 00:44:46;;;;;;;10.00;8.88;;;;;;;;;;5040995;28;20213;-73
2022/06/07 00:47:13;;;;;;;11.23;9.35;;;;;;;;;;5047720;28;20177;-73
2022/06/07 00:49:44;;;;;;;12.50;9.73;;;;;;;;;;5041862;28;20173;-73
2022/06/07 00:52:10;;;;;;;13.18;9.02;;;;;;;;;;5037333;28;20247;-73
2022/06/07 00:54:35;;;;;;;11.63;9.60;;;;;;;;;;5041325;28;20674;-75
2022/06/07 00:57:01;;;;;;;12.75;9.40;;;;;;;;;;5045442;28;20183;-75
2022/06/07 00:59:26;;;;;;;14.35;9.95;;;;;;;;;;5045902;28;20185;-74
2022/06/07 01:01:52;;;;;;;10.75;9.60;;;;;;;;;;5046412;28;20205;-73
2022/06/07 01:04:17;;;;;;;10.70;9.30;;;;;;;;;;5046256;28;20198;-75
2022/06/07 01:12:10;;;;;;;10.35;9.07;;;;;;;;;;5045778;28;20251;-73
2022/06/07 01:14:36;;;;;;;11.93;9.10;;;;;;;;;;5038726;28;20608;-75
2022/06/07 01:17:01;;;;;;;11.40;8.48;;;;;;;;;;5044403;28;20611;-72
2022/06/07 01:19:27;;;;;;;10.73;8.50;;;;;;;;;;5036614;28;20581;-73
2022/06/07 01:21:52;;;;;;;10.98;9.45;;;;;;;;;;5047660;28;20185;-73
2022/06/07 01:24:17;;;;;;;14.77;9.93;;;;;;;;;;5047005;28;20332;-73
2022/06/07 01:26:43;;;;;;;11.90;10.70;;;;;;;;;;5045147;28;20671;-74
2022/06/07 01:29:10;;;;;;;12.02;10.25;;;;;;;;;;5040085;28;20181;-73
2022/06/07 01:31:35;;;;;;;11.57;10.38;;;;;;;;;;5032827;28;20241;-74
2022/06/07 01:34:01;;;;;;;14.82;11.68;;;;;;;;;;5043947;28;20175;-73
2022/06/07 01:36:26;;;;;;;11.77;10.63;;;;;;;;;;5034108;28;20228;-74
2022/06/07 01:41:53;;;;;;;12.30;11.00;;;;;;;;;;5035514;28;20188;-74
2022/06/07 01:44:19;;;;;;;12.90;11.55;;;;;;;;;;5038766;28;20205;-74
2022/06/07 01:46:44;;;;;;;14.20;12.70;;;;;;;;;;5036330;28;20271;-76
2022/06/07 01:49:09;;;;;;;14.30;11.23;;;;;;;;;;5029064;28;20206;-74
2022/06/07 01:51:35;;;;;;;14.07;12.02;;;;;;;;;;5039647;28;20192;-73
2022/06/07 01:54:00;;;;;;;12.23;10.93;;;;;;;;;;5039455;28;20206;-73
2022/06/07 01:56:25;;;;;;;13.48;11.85;;;;;;;;;;5039396;28;20195;-73
2022/06/07 01:58:50;;;;;;;14.57;11.02;;;;;;;;;;5048294;28;20184;-73
2022/06/07 02:01:16;;;;;;;14.40;11.93;;;;;;;;;;5037762;28;20186;-76
2022/06/07 02:03:41;;;;;;;13.40;11.95;;;;;;;;;;5044718;28;20256;-73
2022/06/07 02:06:08;;;;;;;13.05;11.68;;;;;;;;;;5046576;28;20198;-75
2022/06/07 02:08:36;;;;;;;13.55;11.27;;;;;;;;;;5038919;28;20333;-73
2022/06/07 02:11:06;;;;;;;15.02;12.68;;;;;;;;;;5042628;28;20186;-75
2022/06/07 02:13:31;;;;;;;14.57;12.98;;;;;;;;;;5039313;28;20275;-75
2022/06/07 02:15:56;;;;;;;16.10;13.98;;;;;;;;;;5040284;28;20277;-75
2022/06/07 02:18:22;;;;;;;15.63;13.27;;;;;;;;;;5036855;28;20185;-74
2022/06/07 02:20:47;;;;;;;14.18;12.35;;;;;;;;;;5048951;28;20667;-74
2022/06/07 02:23:12;;;;;;;18.83;12.73;;;;;;;;;;5043070;28;20304;-74
2022/06/07 02:25:41;;;;;;;15.55;13.00;;;;;;;;;;5040651;28;20593;-74
2022/06/07 02:28:06;;;;;;;15.10;13.40;;;;;;;;;;5043216;28;20174;-74
2022/06/07 02:30:32;;;;;;;17.25;13.88;;;;;;;;;;5046378;28;20807;-74
2022/06/07 02:32:57;;;;;;;17.52;14.52;;;;;;;;;;5046922;28;20176;-74
2022/06/07 02:35:23;;;;;;;18.13;13.27;;;;;;;;;;5040033;28;20214;-74
2022/06/07 02:37:48;;;;;;;19.88;15.70;;;;;;;;;;5039650;28;20169;-74
2022/06/07 02:40:13;;;;;;;17.70;13.90;;;;;;;;;;5043081;28;20600;-74
2022/06/07 02:42:39;;;;;;;15.63;13.80;;;;;;;;;;5041454;28;20655;-74
2022/06/07 02:45:04;;;;;;;19.80;14.63;;;;;;;;;;5031865;28;20210;-74
2022/06/07 02:47:30;;;;;;;16.45;14.45;;;;;;;;;;5038955;28;20189;-74
2022/06/07 02:49:56;;;;;;;19.70;15.15;;;;;;;;;;5034577;28;20177;-74
2022/06/07 02:52:21;;;;;;;18.10;13.85;;;;;;;;;;5041597;28;20204;-74
2022/06/07 02:54:46;;;;;;;17.92;13.95;;;;;;;;;;5039651;28;20206;-74
2022/06/07 02:57:12;;;;;;;17.83;13.30;;;;;;;;;;5045824;28;20220;-74
2022/06/07 02:59:37;;;;;;;20.38;15.82;;;;;;;;;;5046825;28;20181;-74
2022/06/07 03:02:03;;;;;;;16.10;14.27;;;;;;;;;;5041592;28;20320;-74
2022/06/07 03:04:28;;;;;;;16.38;14.25;;;;;;;;;;5044036;28;20205;-74
2022/06/07 03:06:53;;;;;;;16.90;13.90;;;;;;;;;;5043180;28;20182;-74
2022/06/07 03:09:18;;;;;;;15.25;13.68;;;;;;;;;;5043133;28;20181;-74
2022/06/07 03:11:44;;;;;;;16.65;14.68;;;;;;;;;;5045495;28;20678;-74
2022/06/07 03:14:10;;;;;;;16.88;13.68;;;;;;;;;;5051491;28;20310;-74
2022/06/07 03:16:35;;;;;;;17.05;14.90;;;;;;;;;;5044136;28;20406;-74
2022/06/07 03:19:01;;;;;;;17.55;14.98;;;;;;;;;;5037952;28;20282;-74
2022/06/07 03:21:28;;;;;;;16.35;14.38;;;;;;;;;;5049457;28;20178;-74
2022/06/07 03:23:53;;;;;;;18.33;13.65;;;;;;;;;;5052251;28;20201;-74
2022/06/07 03:26:18;;;;;;;17.08;15.27;;;;;;;;;;5052090;28;20211;-74
2022/06/07 03:28:44;;;;;;;18.50;14.70;;;;;;;;;;5043169;28;20169;-74
2022/06/07 03:31:12;;;;;;;18.08;15.18;;;;;;;;;;5052037;28;20184;-74
2022/06/07 03:33:37;;;;;;;16.08;14.13;;;;;;;;;;5045868;28;20182;-74
2022/06/07 03:36:22;;;;;;;15.73;13.48;;;;;;;;;;5040137;28;20225;-74
2022/06/07 03:38:49;;;;;;;15.35;13.70;;;;;;;;;;5036980;28;20170;-74
2022/06/07 03:41:15;;;;;;;16.20;14.50;;;;;;;;;;5041404;28;20201;-75
2022/06/07 03:43:40;;;;;;;14.45;12.95;;;;;;;;;;5045746;28;20170;-74
2022/06/07 03:46:10;;;;;;;14.13;12.52;;;;;;;;;;5045940;28;20197;-75
2022/06/07 03:48:35;;;;;;;15.23;13.40;;;;;;;;;;5043271;28;20623;-75
2022/06/07 03:51:00;;;;;;;14.43;12.73;;;;;;;;;;5050629;28;20231;-73
2022/06/07 03:53:25;;;;;;;14.65;11.57;;;;;;;;;;5041488;28;20232;-74
2022/06/07 03:55:52;;;;;;;16.27;12.10;;;;;;;;;;5040349;28;20318;-73
2022/06/07 03:58:18;;;;;;;13.65;12.23;;;;;;;;;;5042800;28;20220;-75
2022/06/07 04:00:43;;;;;;;16.70;12.90;;;;;;;;;;5048366;28;20219;-73
2022/06/07 04:03:09;;;;;;;14.65;12.07;;;;;;;;;;5046171;28;20191;-75
2022/06/07 04:05:38;;;;;;;13.88;11.85;;;;;;;;;;5045919;28;20215;-73
2022/06/07 04:08:12;;;;;;;13.73;11.98;;;;;;;;;;5050731;28;20656;-75
2022/06/07 04:10:47;;;;;;;13.00;10.40;;;;;;;;;;5047398;28;20192;-73
2022/06/07 04:13:14;;;;;;;13.05;11.10;;;;;;;;;;5043477;28;20203;-75
2022/06/07 04:15:39;;;;;;;13.70;12.10;;;;;;;;;;5047188;28;20198;-72
2022/06/07 04:18:04;;;;;;;12.38;11.13;;;;;;;;;;5045032;28;20180;-74
2022/06/07 04:20:30;;;;;;;16.42;11.63;;;;;;;;;;5044843;28;20672;-75
2022/06/07 04:22:55;;;;;;;14.60;12.00;;;;;;;;;;5053086;28;20249;-75
2022/06/07 04:25:20;;;;;;;12.40;11.10;;;;;;;;;;5046809;28;20209;-73
2022/06/07 04:27:45;;;;;;;14.43;10.80;;;;;;;;;;5048212;28;20174;-74
2022/06/07 04:30:11;;;;;;;11.85;10.52;;;;;;;;;;5042223;28;20175;-74
2022/06/07 04:32:38;;;;;;;13.05;10.43;;;;;;;;;;5051208;28;20264;-73
2022/06/07 04:35:04;;;;;;;13.57;11.20;;;;;;;;;;5043259;28;20190;-75
2022/06/07 04:37:29;;;;;;;10.90;9.80;;;;;;;;;;5046468;28;20189;-75
2022/06/07 04:39:55;;;;;;;14.95;11.00;;;;;;;;;;5042813;28;20190;-73
2022/06/07 04:42:20;;;;;;;13.13;11.10;;;;;;;;;;5032258;28;20583;-73
2022/06/07 04:44:48;;;;;;;11.05;9.98;;;;;;;;;;5043247;28;20255;-72
2022/06/07 04:47:13;;;;;;;12.48;11.18;;;;;;;;;;5036422;28;21416;-74
2022/06/07 04:49:38;;;;;;;10.70;9.57;;;;;;;;;;5040683;28;20180;-72
2022/06/07 04:52:04;;;;;;;12.43;10.48;;;;;;;;;;5045154;28;20177;-74
2022/06/07 04:54:29;;;;;;;11.73;9.88;;;;;;;;;;5052302;28;20184;-75
2022/06/07 04:56:55;;;;;;;10.82;9.73;;;;;;;;;;5038835;28;20180;-75
2022/06/07 04:59:20;;;;;;;11.85;10.48;;;;;;;;;;5042845;28;20221;-74
2022/06/07 05:01:45;;;;;;;11.80;10.35;;;;;;;;;;5043027;28;20582;-75
2022/06/07 05:04:11;;;;;;;11.38;10.27;;;;;;;;;;5047247;28;20674;-74
2022/06/07 05:06:37;;;;;;;12.18;10.00;;;;;;;;;;5035082;28;20237;-75
2022/06/07 05:09:04;;;;;;;11.75;10.32;;;;;;;;;;5035844;28;20189;-73
2022/06/07 05:11:30;;;;;;;10.68;9.57;;;;;;;;;;5039013;28;20223;-73
2022/06/07 05:13:55;;;;;;;10.95;9.48;;;;;;;;;;5040544;28;20177;-71
2022/06/07 05:16:21;;;;;;;10.40;9.35;;;;;;;;;;5039596;28;20259;-74
2022/06/07 05:18:50;;;;;;;10.52;8.98;;;;;;;;;;5035870;28;20261;-73
2022/06/07 05:21:15;;;;;;;10.65;9.27;;;;;;;;;;5041638;28;20190;-71
2022/06/07 05:23:41;;;;;;;10.27;9.25;;;;;;;;;;5049250;28;20197;-74
2022/06/07 05:26:09;;;;;;;10.85;9.75;;;;;;;;;;5043182;28;20197;-73
2022/06/07 05:28:36;;;;;;;10.40;8.88;;;;;;;;;;5038539;28;20730;-74
2022/06/07 05:31:01;;;;;;;9.82;8.82;;;;;;;;;;5038536;28;20186;-72
2022/06/07 05:33:26;;;;;;;11.13;9.00;;;;;;;;;;5050938;28;20177;-72
2022/06/07 05:35:52;;;;;;;11.13;8.98;;;;;;;;;;5044967;28;20425;-71
2022/06/07 05:38:17;;;;;;;10.68;8.95;;;;;;;;;;5038423;28;20529;-71
2022/06/07 05:40:42;;;;;;;10.60;9.50;;;;;;;;;;5041371;28;20173;-73
2022/06/07 05:43:08;;;;;;;11.35;10.20;;;;;;;;;;5039945;28;20208;-73
2022/06/07 05:45:33;;;;;;;9.95;8.95;;;;;;;;;;5044658;28;20217;-73
2022/06/07 05:47:59;;;;;;;10.07;9.02;;;;;;;;;;5038517;28;20186;-71
2022/06/07 05:50:25;;;;;;;9.77;8.80;;;;;;;;;;5037573;28;20179;-74
2022/06/07 05:52:50;;;;;;;11.30;9.07;;;;;;;;;;5046109;28;20273;-74
2022/06/07 05:55:16;;;;;;;10.75;9.45;;;;;;;;;;5042434;28;20735;-74
2022/06/07 05:57:44;;;;;;;9.43;8.43;;;;;;;;;;5042357;28;20185;-74
2022/06/07 06:00:10;;;;;;;11.88;9.25;;;;;;;;;;5043225;28;20182;-71
2022/06/07 06:02:35;;;;;;;12.00;10.07;;;;;;;;;;5039524;28;20235;-72
2022/06/07 06:05:00;;;;;;;10.00;8.50;;;;;;;;;;5039635;28;20729;-71
2022/06/07 06:07:25;;;;;;;8.68;7.78;;;;;;;;;;5045842;28;20182;-71
2022/06/07 06:12:35;;;;;;;10.10;9.10;;;;;;;;;;5044105;28;20193;-71
2022/06/07 06:15:00;;;;;;;10.45;8.38;;;;;;;;;;5031952;28;20214;-72
2022/06/07 06:17:25;;;;;;;8.63;7.55;;;;;;;;;;5039052;28;20217;-72
2022/06/07 06:19:50;;;;;;;11.45;8.70;;;;;;;;;;5047159;28;20614;-72
2022/06/07 06:22:15;;;;;;;11.40;7.88;;;;;;;;;;5036859;28;20185;-72
2022/06/07 06:24:41;;;;;;;9.63;8.60;;;;;;;;;;5033304;28;20205;-71
2022/06/07 06:27:06;;;;;;;10.88;8.32;;;;;;;;;;5034485;28;21555;-72
2022/06/07 06:29:31;;;;;;;8.65;7.80;;;;;;;;;;5034885;28;20178;-71
2022/06/07 06:31:57;;;;;;;9.18;7.45;;;;;;;;;;5034893;28;20166;-71
2022/06/07 06:34:23;;;;;;;9.50;8.35;;;;;;;;;;5032815;28;20636;-72
2022/06/07 06:36:48;;;;;;;10.98;8.30;;;;;;;;;;5038702;28;20499;-72
2022/06/07 06:39:14;;;;;;;7.85;7.05;;;;;;;;;;5032643;28;20197;-71
2022/06/07 06:41:41;;;;;;;8.55;7.65;;;;;;;;;;5031749;28;20190;-72
2022/06/07 06:44:08;;;;;;;8.68;7.78;;;;;;;;;;5033773;28;20221;-72
2022/06/07 06:46:35;;;;;;;8.30;7.32;;;;;;;;;;5033866;28;20208;-72
2022/06/07 06:49:02;;;;;;;7.93;7.07;;;;;;;;;;5028561;28;20181;-74
2022/06/07 06:51:28;;;;;;;8.18;7.38;;;;;;;;;;5035756;28;20178;-71
2022/06/07 06:53:57;;;;;;;10.30;8.68;;;;;;;;;;5031180;28;20186;-73
2022/06/07 06:56:23;;;;;;;8.68;7.78;;;;;;;;;;5031988;28;20597;-72
2022/06/07 06:58:49;;;;;;;9.60;8.48;;;;;;;;;;5032344;28;20186;-73
2022/06/07 07:01:16;;;;;;;12.00;8.18;;;;;;;;;;5030481;28;20186;-73
2022/06/07 07:03:42;;;;;;;8.38;7.53;;;;;;;;;;5035943;28;20679;-73
2022/06/07 07:06:08;;;;;;;8.73;7.10;;;;;;;;;;5030663;28;20206;-73
2022/06/07 07:08:34;;;;;;;8.77;7.88;;;;;;;;;;5035491;28;20181;-73
2022/06/07 07:11:20;;;;;;;8.65;7.82;;;;;;;;;;5036888;28;21973;-73
2022/06/07 07:13:46;;;;;;;11.32;7.90;;;;;;;;;;5027180;28;20880;-73
2022/06/07 07:16:13;;;;;;;7.90;7.00;;;;;;;;;;5034865;28;20210;-73
2022/06/07 07:18:38;;;;;;;10.68;8.50;;;;;;;;;;5035947;28;20228;-73
2022/06/07 07:21:05;;;;;;;8.68;7.78;;;;;;;;;;5040133;28;20174;-73
2022/06/07 07:23:31;;;;;;;8.75;7.72;;;;;;;;;;5038238;28;20277;-71
2022/06/07 07:26:03;;;;;;;10.98;7.80;;;;;;;;;;5041163;28;20743;-72
2022/06/07 07:28:28;;;;;;;10.05;7.30;;;;;;;;;;5034266;28;20261;-71
2022/06/07 07:30:57;;;;;;;11.32;6.78;;;;;;;;;;5048885;28;20245;-71
2022/06/07 07:33:22;;;;;;;7.50;6.78;;;;;;;;;;5045832;28;20186;-71
2022/06/07 07:35:48;;;;;;;7.30;6.60;;;;;;;;;;5039367;28;20212;-71
2022/06/07 07:38:14;;;;;;;8.32;7.15;;;;;;;;;;5039055;28;20236;-71
2022/06/07 07:40:40;;;;;;;8.02;6.65;;;;;;;;;;5047715;28;20185;-71
2022/06/07 07:43:05;;;;;;;9.63;7.70;;;;;;;;;;5034399;28;20190;-70
2022/06/07 07:45:30;;;;;;;8.30;7.22;;;;;;;;;;5033416;28;20214;-71
2022/06/07 07:47:55;;;;;;;8.82;7.93;;;;;;;;;;5032498;28;20648;-71
2022/06/07 07:50:21;;;;;;;9.65;7.22;;;;;;;;;;5032902;28;20571;-70
2022/06/07 07:52:47;;;;;;;9.60;7.60;;;;;;;;;;5032753;28;20205;-71
2022/06/07 07:55:13;;;;;;;9.25;7.22;;;;;;;;;;5034616;28;20233;-70
2022/06/07 07:57:38;;;;;;;9.45;6.50;;;;;;;;;;5029985;28;20185;-71
2022/06/07 08:00:05;;;;;;;8.55;6.80;;;;;;;;;;5033329;28;20177;-71
2022/06/07 08:02:31;;;;;;;7.70;6.28;;;;;;;;;;5032061;28;20648;-71
2022/06/07 08:04:56;;;;;;;7.97;5.97;;;;;;;;;;5037871;28;20237;-71
2022/06/07 08:07:21;;;;;;;5.75;5.10;;;;;;;;;;5032520;28;20539;-71
2022/06/07 08:09:46;;;;;;;8.50;6.57;;;;;;;;;;5032884;28;20546;-71
2022/06/07 08:12:11;;;;;;;7.22;6.25;;;;;;;;;;5033241;28;20624;-71
2022/06/07 08:14:37;;;;;;;9.65;7.07;;;;;;;;;;5033035;28;20178;-71
2022/06/07 08:17:03;;;;;;;7.57;6.53;;;;;;;;;;5034345;28;20193;-71
2022/06/07 08:19:29;;;;;;;11.57;5.82;;;;;;;;;;5031925;28;20196;-71
2022/06/07 08:21:54;;;;;;;7.88;6.72;;;;;;;;;;5032874;28;20185;-71
2022/06/07 08:24:19;;;;;;;7.68;6.28;;;;;;;;;;5031480;28;20305;-71
2022/06/07 08:26:46;;;;;;;7.00;5.43;;;;;;;;;;5031946;28;20251;-71
2022/06/07 08:29:12;;;;;;;7.63;5.43;;;;;;;;;;5027382;28;20210;-71
2022/06/07 08:31:37;;;;;;;6.78;6.03;;;;;;;;;;5031698;28;20166;-71
2022/06/07 08:39:32;;;;;;;8.95;6.55;;;;;;;;;;5030626;28;20189;-72
2022/06/07 08:42:09;;;;;;;8.88;7.10;;;;;;;;;;5031037;28;20604;-71
2022/06/07 08:44:39;;;;;;;8.73;7.35;;;;;;;;;;5033160;28;20208;-72
2022/06/07 08:47:16;;;;;;;9.20;6.70;;;;;;;;;;5035016;28;20620;-71
2022/06/07 08:49:41;;;;;;;8.73;7.47;;;;;;;;;;5036802;28;20283;-71
2022/06/07 08:52:19;;;;;;;9.98;8.30;;;;;;;;;;5033130;28;20662;-70
2022/06/07 08:54:45;;;;;;;11.80;8.52;;;;;;;;;;5033620;28;20177;-71
2022/06/07 08:57:21;;;;;;;10.35;7.90;;;;;;;;;;5034015;28;20712;-70
2022/06/07 08:59:47;;;;;;;9.32;8.45;;;;;;;;;;5029867;28;20223;-71
2022/06/07 09:02:12;;;;;;;10.30;9.05;;;;;;;;;;5039533;28;20177;-71
2022/06/07 09:04:39;;;;;;;10.67;9.57;;;;;;;;;;5040950;28;20202;-70
2022/06/07 09:07:25;;;;;;;9.68;8.68;;;;;;;;;;5037965;28;20842;-71
2022/06/07 09:12:36;;;;;;;8.88;7.97;;;;;;;;;;5031695;28;20190;-70
2022/06/07 09:15:15;;;;;;;9.48;6.93;;;;;;;;;;5035565;28;20194;-71
2022/06/07 09:17:46;;;;;;;9.82;7.07;;;;;;;;;;5032491;28;20565;-71
2022/06/07 09:20:16;;;;;;;6.95;6.30;;;;;;;;;;5033659;28;20182;-71
2022/06/07 09:22:48;;;;;;;7.38;6.55;;;;;;;;;;5030864;28;20616;-71
2022/06/07 09:25:16;;;;;;;7.63;6.65;;;;;;;;;;5032360;28;20228;-71
2022/06/07 09:27:42;;;;;;;8.45;6.10;;;;;;;;;;5030070;28;20186;-71
2022/06/07 09:30:30;;;;;;;8.20;7.18;;;;;;;;;;5031731;28;20219;-71
2022/06/07 09:32:56;;;;;;;9.02;6.65;;;;;;;;;;5030193;28;20632;-70
2022/06/07 09:35:34;;;;;;;6.80;6.15;;;;;;;;;;5029608;28;20233;-70
2022/06/07 09:38:10;;;;;;;11.43;7.50;;;;;;;;;;5039709;28;20599;-70
2022/06/07 09:40:36;;;;;;;6.82;6.13;;;;;;;;;;5031253;28;20311;-71
2022/06/07 09:43:05;;;;;;;7.65;6.57;;;;;;;;;;5033553;28;20182;-71
2022/06/07 09:45:35;;;;;;;7.93;7.07;;;;;;;;;;5039261;28;20209;-71
2022/06/07 09:48:17;;;;;;;7.35;6.63;;;;;;;;;;5030965;28;20272;-70
2022/06/07 09:50:42;;;;;;;7.78;6.38;;;;;;;;;;5031446;28;20181;-70
2022/06/07 09:53:10;;;;;;;5.93;5.32;;;;;;;;;;5030777;28;20190;-71
2022/06/07 09:55:39;;;;;;;6.30;5.78;;;;;;;;;;5040838;28;20234;-70
2022/06/07 09:58:13;;;;;;;8.43;7.10;;;;;;;;;;5032540;28;20193;-71
2022/06/07 10:00:41;;;;;;;6.85;6.15;;;;;;;;;;5029509;28;20269;-70
2022/06/07 10:03:18;;;;;;;7.68;6.53;;;;;;;;;;5031985;28;20257;-70
2022/06/07 10:05:43;;;;;;;6.55;5.90;;;;;;;;;;5036511;28;20217;-71
2022/06/07 10:08:09;;;;;;;6.80;6.18;;;;;;;;;;5035638;28;20178;-71
2022/06/07 10:10:40;;;;;;;8.32;6.45;;;;;;;;;;5031584;28;20186;-71
2022/06/07 10:13:24;;;;;;;9.80;7.03;;;;;;;;;;5038395;28;20269;-71
2022/06/07 10:16:09;;;;;;;8.50;7.00;;;;;;;;;;5034763;28;20205;-71
2022/06/07 10:18:49;;;;;;;8.25;7.45;;;;;;;;;;5027952;28;20267;-70
2022/06/07 10:21:33;;;;;;;8.90;7.97;;;;;;;;;;5029121;28;20265;-73
2022/06/07 10:24:17;;;;;;;9.10;7.57;;;;;;;;;;5038524;28;20178;-70
2022/06/07 10:26:42;;;;;;;8.52;7.72;;;;;;;;;;5032083;28;20204;-70
2022/06/07 10:29:08;;;;;;;7.60;6.83;;;;;;;;;;5030582;28;20170;-71
2022/06/07 10:31:41;;;;;;;7.40;6.70;;;;;;;;;;5032326;28;20872;-71
2022/06/07 10:34:29;;;;;;;8.63;7.78;;;;;;;;;;5031069;28;20527;-71
2022/06/07 10:37:02;;;;;;;8.48;7.55;;;;;;;;;;5026754;28;20253;-71
2022/06/07 10:39:35;;;;;;;10.95;6.88;;;;;;;;;;5034312;28;20181;-71
2022/06/07 10:42:06;;;;;;;7.45;6.75;;;;;;;;;;5030234;28;20713;-72
2022/06/07 10:44:34;;;;;;;7.32;6.63;;;;;;;;;;5026887;28;20201;-71
2022/06/07 10:47:07;;;;;;;9.05;7.15;;;;;;;;;;5029059;28;20261;-71
2022/06/07 10:49:46;;;;;;;9.25;6.85;;;;;;;;;;5031267;28;20182;-70
2022/06/07 10:52:20;;;;;;;7.25;6.57;;;;;;;;;;5036134;28;20549;-70
2022/06/07 10:54:55;;;;;;;8.38;7.40;;;;;;;;;;5033676;28;20670;-70
2022/06/07 10:57:20;;;;;;;8.90;8.00;;;;;;;;;;5031028;28;20271;-72
2022/06/07 10:59:45;;;;;;;10.68;8.40;;;;;;;;;;5031275;28;22376;-71
2022/06/07 11:02:15;;;;;;;9.30;8.40;;;;;;;;;;5029100;28;20630;-69
2022/06/07 11:10:30;;;;;;;9.63;8.70;;;;;;;;;;5029365;28;20671;-71
2022/06/07 11:13:02;;;;;;;10.30;8.07;;;;;;;;;;5029760;28;20562;-71
2022/06/07 11:15:34;;;;;;;8.90;8.00;;;;;;;;;;5037508;28;20259;-72
2022/06/07 11:18:05;;;;;;;7.97;7.18;;;;;;;;;;5037201;28;20182;-71
2022/06/07 11:20:32;;;;;;;10.65;8.35;;;;;;;;;;5041448;28;20189;-73
2022/06/07 11:23:01;;;;;;;8.43;7.53;;;;;;;;;;5034726;28;20170;-71
2022/06/07 11:25:37;;;;;;;8.45;7.57;;;;;;;;;;5030753;28;20213;-71
2022/06/07 11:28:09;;;;;;;9.50;7.78;;;;;;;;;;5033201;28;20173;-72
2022/06/07 11:30:34;;;;;;;9.55;8.35;;;;;;;;;;5033064;28;20186;-71
2022/06/07 11:32:59;;;;;;;9.67;8.67;;;;;;;;;;5033822;28;20186;-71
2022/06/07 11:35:47;;;;;;;9.43;8.52;;;;;;;;;;5039102;28;20832;-72
2022/06/07 11:38:19;;;;;;;9.25;8.40;;;;;;;;;;5030923;28;20186;-71
2022/06/07 11:40:45;;;;;;;9.23;8.23;;;;;;;;;;5034789;28;20265;-71
2022/06/07 11:43:29;;;;;;;8.10;7.30;;;;;;;;;;5038830;28;20667;-71
2022/06/07 11:45:54;;;;;;;8.85;8.00;;;;;;;;;;5037378;28;20213;-71
2022/06/07 11:48:23;;;;;;;7.93;7.13;;;;;;;;;;5037368;28;20182;-71
2022/06/07 11:50:57;;;;;;;8.90;7.93;;;;;;;;;;5037040;28;20414;-71
2022/06/07 11:53:28;;;;;;;9.90;8.93;;;;;;;;;;5035142;28;20185;-71
2022/06/07 11:55:57;;;;;;;11.32;8.65;;;;;;;;;;5032052;28;20209;-71
2022/06/07 11:58:41;;;;;;;9.85;8.85;;;;;;;;;;5030058;28;20209;-71
2022/06/07 12:01:22;;;;;;;10.20;9.07;;;;;;;;;;5031627;28;20178;-71
2022/06/07 12:04:04;;;;;;;9.73;8.82;;;;;;;;;;5032787;28;20184;-71
2022/06/07 12:06:30;;;;;;;8.90;8.10;;;;;;;;;;5033828;28;20197;-71
2022/06/07 12:08:58;;;;;;;10.07;9.07;;;;;;;;;;5038735;28;20299;-72
2022/06/07 12:11:32;;;;;;;13.38;9.45;;;;;;;;;;5035497;28;20190;-71
2022/06/07 12:14:06;;;;;;;9.45;8.50;;;;;;;;;;5032466;28;20597;-72
2022/06/07 12:16:37;;;;;;;9.43;8.23;;;;;;;;;;5037835;28;20617;-71
2022/06/07 12:19:05;;;;;;;9.80;8.80;;;;;;;;;;5037221;28;20169;-71
2022/06/07 12:21:40;;;;;;;9.02;8.13;;;;;;;;;;5041492;28;20640;-71
2022/06/07 12:24:15;;;;;;;9.15;8.25;;;;;;;;;;5033831;28;20173;-71
2022/06/07 12:26:41;;;;;;;9.32;8.40;;;;;;;;;;5041762;28;20197;-71
2022/06/07 12:29:07;;;;;;;9.68;8.68;;;;;;;;;;5030579;28;20177;-71
2022/06/07 12:31:37;;;;;;;10.03;8.10;;;;;;;;;;5031749;28;20174;-71
2022/06/07 12:34:15;;;;;;;10.20;8.40;;;;;;;;;;5036539;28;20539;-72
2022/06/07 12:36:41;;;;;;;9.32;8.38;;;;;;;;;;5033467;28;20282;-72
2022/06/07 12:39:12;;;;;;;11.02;9.35;;;;;;;;;;5030355;28;20170;-72
2022/06/07 12:41:44;;;;;;;9.95;8.90;;;;;;;;;;5033912;28;20175;-72
2022/06/07 12:44:29;;;;;;;10.18;8.23;;;;;;;;;;5036189;28;20201;-72
2022/06/07 12:46:55;;;;;;;10.55;8.50;;;;;;;;;;5033757;28;20559;-72
2022/06/07 12:49:25;;;;;;;9.07;8.18;;;;;;;;;;5042235;28;20181;-72
2022/06/07 12:52:13;;;;;;;10.95;9.40;;;;;;;;;;5028394;28;20185;-72
2022/06/07 12:54:38;;;;;;;10.32;9.02;;;;;;;;;;5037312;28;20165;-72
2022/06/07 12:57:13;;;;;;;8.63;7.78;;;;;;;;;;5038196;28;20184;-71
2022/06/07 12:59:40;;;;;;;10.85;9.75;;;;;;;;;;5042780;28;20173;-71
2022/06/07 13:02:22;;;;;;;10.85;9.55;;;;;;;;;;5033327;28;20193;-72
2022/06/07 13:04:49;;;;;;;10.65;9.55;;;;;;;;;;5045048;28;20213;-72
2022/06/07 13:07:20;;;;;;;10.55;9.55;;;;;;;;;;5028957;28;20244;-72
2022/06/07 13:09:48;;;;;;;9.73;8.82;;;;;;;;;;5028634;28;20174;-72
2022/06/07 13:12:33;;;;;;;9.93;9.02;;;;;;;;;;5031131;28;20198;-72
2022/06/07 13:14:59;;;;;;;12.70;11.30;;;;;;;;;;5031866;28;20240;-72
2022/06/07 13:17:35;;;;;;;11.90;10.75;;;;;;;;;;5033022;28;20553;-72
2022/06/07 13:20:01;;;;;;;12.88;10.90;;;;;;;;;;5031337;28;20247;-72
2022/06/07 13:22:29;;;;;;;10.98;9.88;;;;;;;;;;5026628;28;20202;-72
2022/06/07 13:25:03;;;;;;;11.35;10.15;;;;;;;;;;5031043;28;20210;-72
2022/06/07 13:27:58;;;;;;;11.43;10.38;;;;;;;;;;5036442;28;20198;-72
2022/06/07 13:30:25;;;;;;;11.05;9.98;;;;;;;;;;5025371;28;20197;-72
2022/06/07 13:33:00;;;;;;;11.40;9.98;;;;;;;;;;5033965;28;20182;-72
2022/06/07 13:35:26;;;;;;;10.65;9.65;;;;;;;;;;5030476;28;20237;-73
2022/06/07 13:38:05;;;;;;;11.50;10.45;;;;;;;;;;5028601;28;20187;-72
2022/06/07 13:40:33;;;;;;;12.40;11.10;;;;;;;;;;5031824;28;20607;-72
2022/06/07 13:43:00;;;;;;;12.10;10.93;;;;;;;;;;5038612;28;20183;-72
2022/06/07 13:45:27;;;;;;;11.45;10.13;;;;;;;;;;5030490;28;20764;-71
2022/06/07 13:47:58;;;;;;;12.32;10.57;;;;;;;;;;5036525;28;20192;-72
2022/06/07 13:53:26;;;;;;;10.00;9.00;;;;;;;;;;5033425;28;20821;-72
2022/06/07 13:55:51;;;;;;;11.55;10.25;;;;;;;;;;5029900;28;20201;-72
2022/06/07 13:58:18;;;;;;;11.27;9.37;;;;;;;;;;5029800;28;20177;-72
2022/06/07 14:00:44;;;;;;;10.30;9.32;;;;;;;;;;5042701;28;20972;-72
2022/06/07 14:03:16;;;;;;;12.10;10.30;;;;;;;;;;5032595;28;20273;-72
2022/06/07 14:05:42;;;;;;;11.75;8.90;;;;;;;;;;5038129;28;20217;-71
2022/06/07 14:08:12;;;;;;;10.33;8.83;;;;;;;;;;5032656;28;20530;-72
2022/06/07 14:10:37;;;;;;;10.30;9.15;;;;;;;;;;5030847;28;20451;-72
2022/06/07 14:13:02;;;;;;;10.00;9.10;;;;;;;;;;5037525;28;20674;-72
2022/06/07 14:15:28;;;;;;;9.47;8.47;;;;;;;;;;5033193;28;20450;-72
2022/06/07 14:17:54;;;;;;;8.88;7.93;;;;;;;;;;5030338;28;20549;-72
2022/06/07 14:20:21;;;;;;;11.90;9.88;;;;;;;;;;5030611;28;20623;-71
2022/06/07 14:22:48;;;;;;;10.57;9.50;;;;;;;;;;5039500;28;20613;-72
2022/06/07 14:25:17;;;;;;;10.07;9.07;;;;;;;;;;5034631;28;20217;-71
2022/06/07 14:27:43;;;;;;;8.82;7.88;;;;;;;;;;5031708;28;20652;-71
2022/06/07 14:30:08;;;;;;;10.40;9.30;;;;;;;;;;5031564;28;20193;-71
2022/06/07 14:32:37;;;;;;;10.93;9.05;;;;;;;;;;5030916;28;20524;-71
2022/06/07 14:35:12;;;;;;;11.48;9.18;;;;;;;;;;5028824;28;20202;-72
2022/06/07 14:37:38;;;;;;;10.20;8.63;;;;;;;;;;5029573;28;20192;-71
2022/06/07 14:40:05;;;;;;;9.10;8.20;;;;;;;;;;5029806;28;20182;-71
2022/06/07 14:42:31;;;;;;;10.35;9.00;;;;;;;;;;5034683;28;20182;-71
2022/06/07 14:44:57;;;;;;;10.67;8.50;;;;;;;;;;5034605;28;20212;-71
2022/06/07 14:47:23;;;;;;;9.32;8.40;;;;;;;;;;5038198;28;20486;-70
2022/06/07 14:49:53;;;;;;;8.57;7.78;;;;;;;;;;5040458;28;20177;-71
2022/06/07 14:52:18;;;;;;;7.95;7.25;;;;;;;;;;5036042;28;20255;-71
2022/06/07 14:54:44;;;;;;;11.32;8.63;;;;;;;;;;5034302;28;20220;-72
2022/06/07 14:57:28;;;;;;;8.60;6.70;;;;;;;;;;5040825;28;20265;-72
2022/06/07 14:59:54;;;;;;;9.80;7.63;;;;;;;;;;5039555;28;20236;-72
2022/06/07 15:02:24;;;;;;;8.95;8.10;;;;;;;;;;5032254;28;20708;-72
2022/06/07 15:05:00;;;;;;;9.45;7.90;;;;;;;;;;5032798;28;20502;-72